Time;durP1;ratioP1;P1;durP2;ratioP2;P2;SDS_P1;SDS_P2;PMS_P1;PMS_P2;Temp;Humidity;BMP_temperature;BMP_pressure;BME280_temperature;BME280_humidity;BME280_pressure;Samples;Min_cycle;Max_cycle;Signal;HPM_P1;HPM_P2
2023/07/06 00:01:37;;;;;;;;;;;;;;;14.01;90.04;101440.41;5041878;28;1965;-70
2023/07/06 00:04:02;;;;;;;;;;;;;;;14.00;90.25;101443.97;5046209;28;1220;-71
2023/07/06 00:06:27;;;;;;;;;;;;;;;13.97;90.22;101449.44;5038142;28;1398;-70
2023/07/06 00:08:52;;;;;;;;;;;;;;;13.93;90.63;101448.03;5036498;28;1451;-70
2023/07/06 00:11:19;;;;;;;;;;;;;;;13.88;90.72;101450.22;5039904;28;1474;-71
2023/07/06 00:13:45;;;;;;;;;;;;;;;13.86;90.86;101457.34;5042862;28;1347;-70
2023/07/06 00:16:11;;;;;;;;;;;;;;;13.85;90.97;101450.50;5041127;28;1621;-70
2023/07/06 00:18:36;;;;;;;;;;;;;;;13.84;91.33;101456.66;5044013;28;1159;-70
2023/07/06 00:21:03;;;;;;;;;;;;;;;13.82;91.25;101457.63;5042560;28;1898;-71
2023/07/06 00:23:28;;;;;;;;;;;;;;;13.83;91.23;101458.44;5042019;28;1447;-70
2023/07/06 00:25:53;;;;;;;;;;;;;;;13.82;91.61;101447.19;5045582;28;1436;-71
2023/07/06 00:28:26;;;;;;;;;;;;;;;13.81;91.83;101449.91;5045883;28;1154;-71
2023/07/06 00:33:18;;;;;;;;;;;;;;;13.79;91.71;101444.00;5041212;28;1033;-71
2023/07/06 00:35:44;;;;;;;;;;;;;;;13.80;91.71;101454.31;5045229;28;1881;-69
2023/07/06 00:38:12;;;;;;;;;;;;;;;13.82;91.74;101447.19;5034683;28;1245;-71
2023/07/06 00:40:39;;;;;;;;;;;;;;;13.86;91.75;101457.34;5033712;28;1985;-70
2023/07/06 00:43:06;;;;;;;;;;;;;;;13.87;91.72;101451.16;5042138;28;1516;-69
2023/07/06 00:45:32;;;;;;;;;;;;;;;13.90;91.89;101453.53;5038998;28;1580;-70
2023/07/06 00:47:59;;;;;;;;;;;;;;;13.87;91.60;101448.56;5044693;28;1141;-70
2023/07/06 00:50:27;;;;;;;;;;;;;;;13.86;91.66;101452.13;5044085;28;1075;-71
2023/07/06 00:53:07;;;;;;;;;;;;;;;13.85;91.74;101453.09;5039301;28;1110;-69
2023/07/06 00:55:36;;;;;;;;;;;;;;;13.86;92.10;101457.34;5042637;28;1045;-75
2023/07/06 00:58:07;;;;;;;;;;;;;;;13.85;91.59;101455.69;5042077;28;1055;-70
2023/07/06 01:00:33;;;;;;;;;;;;;;;13.84;91.81;101459.28;5038323;28;1905;-72
2023/07/06 01:03:01;;;;;;;;;;;;;;;13.85;91.71;101455.69;5043772;28;1377;-70
2023/07/06 01:05:28;;;;;;;;;;;;;;;13.84;91.66;101454.06;5040404;28;1972;-70
2023/07/06 01:07:54;;;;;;;;;;;;;;;13.81;91.62;101450.72;5046945;28;1580;-70
2023/07/06 01:10:20;;;;;;;;;;;;;;;13.80;91.42;101459.53;5050050;28;1214;-70
2023/07/06 01:12:46;;;;;;;;;;;;;;;13.79;91.52;101451.84;5044603;28;1416;-70
2023/07/06 01:15:12;;;;;;;;;;;;;;;13.76;91.64;101452.94;5034979;28;1605;-70
2023/07/06 01:17:47;;;;;;;;;;;;;;;13.74;91.49;101447.00;5047789;28;1366;-71
2023/07/06 01:20:30;;;;;;;;;;;;;;;13.70;91.69;101453.44;5045001;28;1902;-70
2023/07/06 01:23:15;;;;;;;;;;;;;;;13.68;91.62;101447.53;5043195;28;1702;-71
2023/07/06 01:25:50;;;;;;;;;;;;;;;13.62;91.57;101455.88;5038957;28;2074;-71
2023/07/06 01:28:31;;;;;;;;;;;;;;;13.59;91.41;101460.50;5039110;28;1305;-71
2023/07/06 01:30:56;;;;;;;;;;;;;;;13.58;91.63;101444.03;5039399;28;1107;-71
2023/07/06 01:33:41;;;;;;;;;;;;;;;13.58;91.40;101456.25;5038730;28;1168;-71
2023/07/06 01:36:19;;;;;;;;;;;;;;;13.56;91.29;101451.16;5045256;28;1337;-72
2023/07/06 01:38:48;;;;;;;;;;;;;;;13.54;91.48;101447.88;5041020;28;1344;-71
2023/07/06 01:41:15;;;;;;;;;;;;;;;13.51;91.41;101448.13;5044718;28;1898;-71
2023/07/06 01:43:40;;;;;;;;;;;;;;;13.47;91.47;101451.94;5041319;28;1340;-71
2023/07/06 01:46:06;;;;;;;;;;;;;;;13.46;91.41;101450.28;5033529;28;1937;-71
2023/07/06 01:48:33;;;;;;;;;;;;;;;13.42;91.86;101448.88;5042759;28;1292;-71
2023/07/06 01:51:07;;;;;;;;;;;;;;;13.41;91.85;101447.25;5058605;28;1326;-71
2023/07/06 01:53:45;;;;;;;;;;;;;;;13.39;91.68;101449.97;5037154;28;1116;-71
2023/07/06 01:56:22;;;;;;;;;;;;;;;13.37;91.63;101451.06;5046615;28;1323;-72
2023/07/06 01:58:55;;;;;;;;;;;;;;;13.35;91.60;101458.16;5043361;28;1282;-71
2023/07/06 02:01:25;;;;;;;;;;;;;;;13.34;91.70;101456.53;5047672;28;1921;-72
2023/07/06 02:03:51;;;;;;;;;;;;;;;13.31;91.42;101456.78;5048881;28;1413;-71
2023/07/06 02:06:17;;;;;;;;;;;;;;;13.31;91.55;101451.59;5044107;28;1678;-71
2023/07/06 02:08:42;;;;;;;;;;;;;;;13.28;91.50;101456.06;5041300;28;1314;-71
2023/07/06 02:11:09;;;;;;;;;;;;;;;13.28;91.56;101455.25;5042625;28;1256;-71
2023/07/06 02:13:35;;;;;;;;;;;;;;;13.25;91.50;101453.75;5048433;28;1323;-71
2023/07/06 02:16:00;;;;;;;;;;;;;;;13.23;91.40;101455.63;5043713;28;1090;-72
2023/07/06 02:18:27;;;;;;;;;;;;;;;13.24;91.76;101459.88;5045587;28;1277;-71
2023/07/06 02:20:57;;;;;;;;;;;;;;;13.21;91.28;101452.34;5040370;28;1898;-71
2023/07/06 02:23:23;;;;;;;;;;;;;;;13.21;91.59;101446.31;5052388;28;1157;-72
2023/07/06 02:25:48;;;;;;;;;;;;;;;13.16;91.80;101446.66;5047957;28;1141;-72
2023/07/06 02:28:13;;;;;;;;;;;;;;;13.12;91.80;101442.63;5046035;28;1140;-72
2023/07/06 02:30:38;;;;;;;;;;;;;;;13.12;91.85;101442.63;5040789;28;1451;-71
2023/07/06 02:33:04;;;;;;;;;;;;;;;13.11;91.63;101446.19;5046736;28;1283;-72
2023/07/06 02:35:29;;;;;;;;;;;;;;;13.10;91.99;101436.72;5042121;28;1138;-71
2023/07/06 02:37:54;;;;;;;;;;;;;;;13.11;91.73;101446.19;5048951;28;1707;-71
2023/07/06 02:40:19;;;;;;;;;;;;;;;13.12;92.03;101447.84;5039388;28;1959;-71
2023/07/06 02:42:45;;;;;;;;;;;;;;;13.09;91.76;101442.91;5043141;28;1541;-71
2023/07/06 02:45:10;;;;;;;;;;;;;;;13.06;92.09;101448.34;5035817;28;1230;-71
2023/07/06 02:47:36;;;;;;;;;;;;;;;13.06;91.98;101453.56;5042968;28;1106;-69
2023/07/06 02:50:02;;;;;;;;;;;;;;;13.05;92.00;101446.69;5037526;28;1278;-69
2023/07/06 02:52:27;;;;;;;;;;;;;;;13.03;91.81;101451.22;5041070;28;1276;-70
2023/07/06 02:54:53;;;;;;;;;;;;;;;13.04;91.81;101455.47;5046565;28;1298;-70
2023/07/06 02:57:18;;;;;;;;;;;;;;;13.01;92.05;101450.50;5041733;28;1087;-69
2023/07/06 02:59:44;;;;;;;;;;;;;;;12.98;92.14;101455.97;5046938;28;1450;-69
2023/07/06 03:02:09;;;;;;;;;;;;;;;12.98;91.99;101455.97;5045129;28;1926;-70
2023/07/06 03:04:34;;;;;;;;;;;;;;;12.99;91.84;101452.41;5042714;28;1399;-69
2023/07/06 03:06:59;;;;;;;;;;;;;;;12.99;91.98;101457.63;5046903;28;1240;-70
2023/07/06 03:09:24;;;;;;;;;;;;;;;12.96;91.92;101453.50;5038980;28;1154;-69
2023/07/06 03:11:52;;;;;;;;;;;;;;;12.94;92.02;101457.16;5041390;28;1441;-69
2023/07/06 03:14:21;;;;;;;;;;;;;;;12.92;91.75;101461.69;5038627;28;1332;-69
2023/07/06 03:16:47;;;;;;;;;;;;;;;12.89;91.67;101467.13;5038875;28;1371;-69
2023/07/06 03:19:15;;;;;;;;;;;;;;;12.83;92.12;101457.22;5048212;28;1337;-70
2023/07/06 03:21:40;;;;;;;;;;;;;;;12.81;92.14;101464.31;5044514;28;1959;-70
2023/07/06 03:24:06;;;;;;;;;;;;;;;12.83;91.95;101467.63;5043770;28;1776;-69
2023/07/06 03:26:33;;;;;;;;;;;;;;;12.80;92.22;101473.09;5042937;28;1248;-70
2023/07/06 03:28:59;;;;;;;;;;;;;;;12.79;92.47;101469.66;5033118;28;1026;-70
2023/07/06 03:31:24;;;;;;;;;;;;;;;12.77;92.50;101459.34;5039255;28;1362;-70
2023/07/06 03:33:49;;;;;;;;;;;;;;;12.78;92.46;101475.78;5036714;28;1537;-70
2023/07/06 03:36:14;;;;;;;;;;;;;;;12.80;92.30;101473.09;5039286;28;1372;-69
2023/07/06 03:38:39;;;;;;;;;;;;;;;12.79;92.16;101472.28;5043261;28;1268;-70
2023/07/06 03:41:05;;;;;;;;;;;;;;;12.77;91.93;101474.16;5040859;28;1894;-71
2023/07/06 03:43:31;;;;;;;;;;;;;;;12.77;91.89;101480.19;5042628;28;1550;-69
2023/07/06 03:45:56;;;;;;;;;;;;;;;12.74;92.22;101475.25;5046467;28;1321;-70
2023/07/06 03:48:21;;;;;;;;;;;;;;;12.74;91.69;101480.44;5047451;28;1597;-69
2023/07/06 03:51:15;;;;;;;;;;;;;;;12.74;92.43;101479.63;5050911;22;1689;-87
2023/07/06 03:53:58;;;;;;;;;;;;;;;12.77;92.24;101480.19;5022610;28;1245;-87
2023/07/06 03:56:34;;;;;;;;;;;;;;;12.75;92.02;101482.09;5040760;28;1312;-86
2023/07/06 03:59:31;;;;;;;;;;;;;;;12.70;92.30;101494.66;5020106;28;1384;-87
2023/07/06 04:02:00;;;;;;;;;;;;;;;12.70;92.03;101486.00;5019034;28;1930;-87
2023/07/06 04:05:00;;;;;;;;;;;;;;;12.72;92.57;101484.94;5023559;28;1266;-86
2023/07/06 04:07:29;;;;;;;;;;;;;;;12.72;92.18;101495.34;5022525;28;1486;-87
2023/07/06 04:09:59;;;;;;;;;;;;;;;12.68;92.27;101496.56;5022378;28;1275;-87
2023/07/06 04:12:32;;;;;;;;;;;;;;;12.68;92.65;101491.34;5023856;28;1392;-87
2023/07/06 04:15:04;;;;;;;;;;;;;;;12.69;92.43;101497.38;5020093;28;1342;-87
2023/07/06 04:17:42;;;;;;;;;;;;;;;12.69;92.38;101498.19;5021470;28;1449;-87
2023/07/06 04:20:18;;;;;;;;;;;;;;;12.68;92.57;101495.72;5023535;28;1335;-86
2023/07/06 04:23:15;;;;;;;;;;;;;;;12.67;92.64;101489.69;5023958;28;1260;-87
2023/07/06 04:25:50;;;;;;;;;;;;;;;12.68;93.25;101491.34;5021449;28;1317;-87
2023/07/06 04:28:31;;;;;;;;;;;;;;;;;;;;;
2023/07/06 04:31:17;;;;;;;;;;;;;;;12.66;93.24;101493.22;5015180;28;1168;-86
2023/07/06 04:34:03;;;;;;;;;;;;;;;;;;;;;
2023/07/06 04:36:57;;;;;;;;;;;;;;;12.69;93.34;101498.19;5028004;28;1615;-86
2023/07/06 04:39:24;;;;;;;;;;;;;;;12.70;93.36;101505.06;5014704;28;1135;-86
2023/07/06 04:41:49;;;;;;;;;;;;;;;12.69;92.85;101494.78;5030094;28;1926;-86
2023/07/06 04:44:16;;;;;;;;;;;;;;;12.72;93.05;101505.75;5027181;28;1518;-86
2023/07/06 04:46:42;;;;;;;;;;;;;;;12.72;93.16;101508.34;5028756;28;1245;-87
2023/07/06 04:49:07;;;;;;;;;;;;;;;12.74;93.36;101516.06;5022836;28;1171;-85
2023/07/06 04:51:35;;;;;;;;;;;;;;;12.75;92.98;101518.53;5026093;28;1346;-85
2023/07/06 04:54:02;;;;;;;;;;;;;;;12.74;93.54;101516.88;5022910;28;1382;-86
2023/07/06 04:56:27;;;;;;;;;;;;;;;12.78;93.79;101517.44;5031685;28;1334;-85
2023/07/06 04:58:53;;;;;;;;;;;;;;;12.81;93.39;101521.59;5033258;28;1197;-86
2023/07/06 05:01:19;;;;;;;;;;;;;;;12.82;93.43;101520.66;5026291;28;1867;-86
2023/07/06 05:03:45;;;;;;;;;;;;;;;12.83;93.85;101524.91;5026213;28;1333;-86
2023/07/06 05:06:12;;;;;;;;;;;;;;;12.84;93.40;101516.13;5022221;28;1326;-87
2023/07/06 05:08:39;;;;;;;;;;;;;;;12.83;93.76;101520.50;5028533;28;1116;-85
2023/07/06 05:11:05;;;;;;;;;;;;;;;12.84;93.54;101518.72;5030502;28;1556;-86
2023/07/06 05:13:30;;;;;;;;;;;;;;;12.85;93.96;101517.81;5027725;28;1132;-86
2023/07/06 05:15:55;;;;;;;;;;;;;;;12.88;94.22;101507.13;5024140;28;1442;-85
2023/07/06 05:18:21;;;;;;;;;;;;;;;12.86;93.68;101509.03;5020871;28;1547;-85
2023/07/06 05:20:57;;;;;;;;;;;;;;;12.91;94.12;101517.31;5024538;28;1887;-86
2023/07/06 05:23:22;;;;;;;;;;;;;;;12.91;93.32;101518.13;5029599;28;1134;-85
2023/07/06 05:25:51;;;;;;;;;;;;;;;12.92;93.86;101513.75;5034300;28;1317;-86
2023/07/06 05:28:19;;;;;;;;;;;;;;;12.91;94.25;101512.94;5027991;28;1090;-86
2023/07/06 05:30:50;;;;;;;;;;;;;;;12.95;94.15;101518.69;5022504;28;1186;-85
2023/07/06 05:33:16;;;;;;;;;;;;;;;13.00;94.08;101527.78;5026798;28;1296;-86
2023/07/06 05:35:42;;;;;;;;;;;;;;;13.08;94.19;101523.78;5028213;28;1245;-86
2023/07/06 05:38:10;;;;;;;;;;;;;;;13.14;94.53;101526.69;5032796;28;1414;-85
2023/07/06 05:40:36;;;;;;;;;;;;;;;13.20;94.40;101534.00;5019679;28;2264;-86
2023/07/06 05:43:01;;;;;;;;;;;;;;;13.24;94.31;101527.59;5028075;28;1281;-85
2023/07/06 05:45:26;;;;;;;;;;;;;;;13.27;94.60;101543.00;5023664;28;1284;-86
2023/07/06 05:47:52;;;;;;;;;;;;;;;13.29;94.17;101533.28;5023336;28;1273;-86
2023/07/06 05:50:17;;;;;;;;;;;;;;;13.33;93.90;101533.03;5022909;28;1409;-85
2023/07/06 05:52:42;;;;;;;;;;;;;;;13.35;94.22;101542.38;5027217;28;1305;-86
2023/07/06 05:55:08;;;;;;;;;;;;;;;13.40;94.49;101542.00;5029867;28;1204;-85
2023/07/06 05:57:34;;;;;;;;;;;;;;;13.45;94.48;101542.44;5028224;28;1510;-87
2023/07/06 05:59:59;;;;;;;;;;;;;;;13.50;94.67;101540.28;5027323;28;1457;-84
2023/07/06 06:02:25;;;;;;;;;;;;;;;13.56;94.80;101545.00;5022141;28;1914;-84
2023/07/06 06:04:51;;;;;;;;;;;;;;;13.63;95.07;101540.94;5026168;28;1538;-85
2023/07/06 06:07:19;;;;;;;;;;;;;;;13.72;94.00;101539.34;5023404;28;1397;-85
2023/07/06 06:09:44;;;;;;;;;;;;;;;13.77;94.48;101543.22;5026949;28;1240;-85
2023/07/06 06:12:10;;;;;;;;;;;;;;;13.82;94.74;101546.28;5028482;28;1217;-85
2023/07/06 06:14:35;;;;;;;;;;;;;;;13.90;94.25;101550.00;5032186;28;1383;-86
2023/07/06 06:17:01;;;;;;;;;;;;;;;13.94;94.64;101554.03;5032179;28;1537;-86
2023/07/06 06:19:27;;;;;;;;;;;;;;;14.01;94.25;101557.75;5031702;28;1573;-86
2023/07/06 06:21:53;;;;;;;;;;;;;;;14.04;93.92;101566.13;5023970;28;1973;-86
2023/07/06 06:24:18;;;;;;;;;;;;;;;14.09;94.01;101563.16;5024863;28;1436;-86
2023/07/06 06:26:44;;;;;;;;;;;;;;;14.13;94.15;101569.75;5030445;28;1592;-86
2023/07/06 06:29:09;;;;;;;;;;;;;;;14.21;94.63;101567.31;5028150;28;1244;-86
2023/07/06 06:31:35;;;;;;;;;;;;;;;14.29;94.72;101577.13;5028964;28;1271;-86
2023/07/06 06:34:01;;;;;;;;;;;;;;;14.33;94.18;101576.72;5028587;28;1267;-86
2023/07/06 06:36:26;;;;;;;;;;;;;;;14.42;94.54;101579.50;5028847;28;1291;-86
2023/07/06 06:38:53;;;;;;;;;;;;;;;14.47;94.72;101578.19;5027997;28;1509;-86
2023/07/06 06:41:21;;;;;;;;;;;;;;;14.54;94.64;101581.09;5031384;28;1894;-85
2023/07/06 06:43:46;;;;;;;;;;;;;;;14.60;94.56;101583.16;5032638;28;1239;-86
2023/07/06 06:46:12;;;;;;;;;;;;;;;14.64;94.34;101589.78;5033936;28;1530;-85
2023/07/06 06:48:39;;;;;;;;;;;;;;;14.70;94.27;101593.66;5030929;28;1312;-85
2023/07/06 06:51:07;;;;;;;;;;;;;;;14.72;94.56;101592.53;5025797;28;1729;-86
2023/07/06 06:53:33;;;;;;;;;;;;;;;14.75;94.91;101597.50;5027976;28;1153;-86
2023/07/06 06:55:58;;;;;;;;;;;;;;;14.79;94.42;101598.88;5037363;28;1264;-86
2023/07/06 06:58:24;;;;;;;;;;;;;;;14.82;94.32;101603.84;5024789;28;1411;-84
2023/07/06 07:00:59;;;;;;;;;;;;;;;14.81;94.35;101596.97;5025850;28;1977;-84
2023/07/06 07:03:27;;;;;;;;;;;;;;;14.84;94.82;101607.13;5024162;28;979;-86
2023/07/06 07:06:03;;;;;;;;;;;;;;;14.88;94.41;101603.31;5024715;28;1363;-85
2023/07/06 07:08:29;;;;;;;;;;;;;;;14.92;94.12;101605.66;5030995;28;1231;-86
2023/07/06 07:10:56;;;;;;;;;;;;;;;14.95;94.62;101608.81;5023316;28;1406;-85
2023/07/06 07:13:21;;;;;;;;;;;;;;;15.02;94.20;101611.72;5030005;28;1582;-85
2023/07/06 07:15:46;;;;;;;;;;;;;;;15.06;94.17;101616.53;5023885;28;1391;-86
2023/07/06 07:18:12;;;;;;;;;;;;;;;15.12;94.38;101618.59;5031718;28;1366;-86
2023/07/06 07:20:37;;;;;;;;;;;;;;;15.17;94.15;101631.28;5030815;28;2023;-85
2023/07/06 07:23:02;;;;;;;;;;;;;;;15.22;94.11;101630.88;5026712;28;1540;-86
2023/07/06 07:25:28;;;;;;;;;;;;;;;15.24;94.83;101637.59;5027150;28;1307;-84
2023/07/06 07:27:55;;;;;;;;;;;;;;;15.27;94.23;101637.34;5026996;28;1327;-86
2023/07/06 07:30:21;;;;;;;;;;;;;;;15.32;94.55;101643.00;5025530;28;1514;-85
2023/07/06 07:32:47;;;;;;;;;;;;;;;15.38;94.40;101647.69;5034276;28;1128;-86
2023/07/06 07:35:12;;;;;;;;;;;;;;;15.39;94.23;101643.28;5025787;28;998;-86
2023/07/06 07:37:38;;;;;;;;;;;;;;;15.44;94.52;101645.50;5020812;28;1306;-86
2023/07/06 07:40:05;;;;;;;;;;;;;;;15.48;93.81;101646.84;5027475;28;1307;-85
2023/07/06 07:42:30;;;;;;;;;;;;;;;15.53;94.33;101649.88;5026239;28;1894;-84
2023/07/06 07:44:57;;;;;;;;;;;;;;;15.58;94.12;101650.28;5027747;28;1228;-85
2023/07/06 07:47:24;;;;;;;;;;;;;;;15.60;93.88;101648.38;5026771;28;1241;-85
2023/07/06 07:49:49;;;;;;;;;;;;;;;15.64;94.17;101652.38;5025429;28;1416;-85
2023/07/06 07:52:14;;;;;;;;;;;;;;;15.67;93.85;101652.13;5028444;28;1272;-85
2023/07/06 07:54:40;;;;;;;;;;;;;;;15.71;93.57;101658.72;5023768;28;1574;-84
2023/07/06 07:57:08;;;;;;;;;;;;;;;15.70;93.95;101662.28;5028445;28;1277;-85
2023/07/06 07:59:33;;;;;;;;;;;;;;;15.73;93.60;101662.03;5023853;28;1326;-84
2023/07/06 08:01:59;;;;;;;;;;;;;;;15.72;92.67;101665.63;5027753;28;1894;-85
2023/07/06 08:04:24;;;;;;;;;;;;;;;15.77;92.92;101658.19;5028837;28;1362;-84
2023/07/06 08:06:50;;;;;;;;;;;;;;;15.80;92.92;101660.50;5028465;28;1409;-85
2023/07/06 08:09:16;;;;;;;;;;;;;;;15.84;92.59;101661.06;5025052;28;1639;-85
2023/07/06 08:11:46;;;;;;;;;;;;;;;15.84;92.33;101656.66;5022589;28;1583;-85
2023/07/06 08:14:12;;;;;;;;;;;;;;;15.88;92.93;101665.03;5026173;28;1265;-84
2023/07/06 08:16:40;;;;;;;;;;;;;;;15.92;92.30;101666.41;5033170;28;1315;-85
2023/07/06 08:19:05;;;;;;;;;;;;;;;15.98;92.53;101665.03;5027759;28;1176;-84
2023/07/06 08:21:30;;;;;;;;;;;;;;;16.03;92.50;101668.06;5034469;28;1966;-85
2023/07/06 08:23:57;;;;;;;;;;;;;;;16.08;92.15;101671.09;5036529;28;1226;-85
2023/07/06 08:26:22;;;;;;;;;;;;;;;16.11;91.76;101670.78;5028224;28;1374;-85
2023/07/06 08:28:47;;;;;;;;;;;;;;;16.14;91.37;101678.38;5030502;28;1315;-85
2023/07/06 08:31:13;;;;;;;;;;;;;;;16.19;91.48;101678.78;5031833;28;1589;-85
2023/07/06 08:33:39;;;;;;;;;;;;;;;16.26;91.17;101685.09;5034887;28;1829;-85
2023/07/06 08:36:06;;;;;;;;;;;;;;;16.28;90.66;101685.78;5032086;28;1206;-86
2023/07/06 08:38:32;;;;;;;;;;;;;;;16.29;90.16;101684.81;5033096;28;1334;-85
2023/07/06 08:40:59;;;;;;;;;;;;;;;16.29;90.28;101690.06;5027540;28;1949;-85
2023/07/06 08:43:25;;;;;;;;;;;;;;;16.36;90.59;101685.91;5033409;28;1364;-85
2023/07/06 08:45:56;;;;;;;;;;;;;;;16.50;90.96;101687.22;5027921;28;1422;-85
2023/07/06 08:48:25;;;;;;;;;;;;;;;16.60;90.52;101692.44;5035753;28;1336;-85
2023/07/06 08:50:53;;;;;;;;;;;;;;;16.67;90.29;101691.72;5028081;28;1264;-85
2023/07/06 08:53:20;;;;;;;;;;;;;;;16.74;89.70;101686.75;5030432;28;1381;-84
2023/07/06 08:55:45;;;;;;;;;;;;;;;16.78;89.40;101696.00;5025367;28;1226;-85
2023/07/06 08:58:14;;;;;;;;;;;;;;;16.83;89.51;101693.75;5040295;28;958;-84
2023/07/06 09:00:40;;;;;;;;;;;;;;;16.89;88.83;101692.38;5027723;28;1973;-84
2023/07/06 09:03:06;;;;;;;;;;;;;;;16.92;89.04;101698.16;5033506;28;1421;-85
2023/07/06 09:05:34;;;;;;;;;;;;;;;16.96;88.70;101691.63;5032088;28;1704;-87
2023/07/06 09:08:00;;;;;;;;;;;;;;;16.98;88.59;101697.56;5034861;28;1268;-85
2023/07/06 09:10:28;;;;;;;;;;;;;;;17.06;88.25;101698.63;5027709;28;1406;-86
2023/07/06 09:12:54;;;;;;;;;;;;;;;17.12;88.10;101698.84;5031117;28;1372;-86
2023/07/06 09:15:48;;;;;;;;;;;;;;;17.24;88.05;101699.47;5031455;28;1564;-87
2023/07/06 09:18:16;;;;;;;;;;;;;;;17.40;87.62;101697.03;5028005;28;1334;-87
2023/07/06 09:20:44;;;;;;;;;;;;;;;17.52;87.13;101695.03;5024151;28;1971;-85
2023/07/06 09:23:13;;;;;;;;;;;;;;;17.59;86.42;101708.34;5026519;28;1483;-86
2023/07/06 09:25:42;;;;;;;;;;;;;;;17.61;86.89;101698.56;5034426;28;1571;-85
2023/07/06 09:28:12;;;;;;;;;;;;;;;17.64;86.66;101698.25;5027259;28;1294;-85
2023/07/06 09:30:39;;;;;;;;;;;;;;;17.68;86.22;101704.84;5027864;28;1603;-86
2023/07/06 09:33:13;;;;;;;;;;;;;;;17.74;85.50;101704.28;5028268;28;1271;-86
2023/07/06 09:35:38;;;;;;;;;;;;;;;17.81;85.68;101702.69;5043767;28;1514;-86
2023/07/06 09:38:06;;;;;;;;;;;;;;;17.83;85.01;101708.59;5028496;28;1644;-86
2023/07/06 09:40:31;;;;;;;;;;;;;;;17.87;84.14;101709.13;5024969;28;1890;-86
2023/07/06 09:42:57;;;;;;;;;;;;;;;17.90;83.98;101699.19;5023574;28;1181;-85
2023/07/06 09:45:31;;;;;;;;;;;;;;;18.09;83.96;101703.41;5026844;28;1567;-85
2023/07/06 09:48:11;;;;;;;;;;;;;;;18.18;82.29;101696.41;5022991;28;1334;-86
2023/07/06 09:50:43;;;;;;;;;;;;;;;18.34;82.98;101700.94;5020771;28;1193;-85
2023/07/06 09:53:12;;;;;;;;;;;;;;;18.48;82.05;101701.22;5035484;28;1216;-86
2023/07/06 09:55:37;;;;;;;;;;;;;;;18.63;79.04;101706.69;5023104;28;1428;-86
2023/07/06 09:58:07;;;;;;;;;;;;;;;18.69;80.53;101700.03;5029188;28;1311;-85
2023/07/06 10:00:36;;;;;;;;;;;;;;;18.77;80.02;101697.47;5021638;28;1965;-85
2023/07/06 10:03:20;;;;;;;;;;;;;;;18.91;79.67;101694.22;5031993;28;1193;-85
2023/07/06 10:05:45;;;;;;;;;;;;;;;19.02;79.83;101696.56;5018639;28;1258;-85
2023/07/06 10:08:24;;;;;;;;;;;;;;;19.02;79.42;101701.81;5027294;28;1448;-85
2023/07/06 10:10:50;;;;;;;;;;;;;;;19.15;80.09;101690.03;5026853;28;1268;-85
2023/07/06 10:13:33;;;;;;;;;;;;;;;19.25;79.14;101693.34;5025456;28;1544;-85
2023/07/06 10:16:11;;;;;;;;;;;;;;;19.41;77.62;101692.56;5031249;28;1366;-85
2023/07/06 10:18:49;;;;;;;;;;;;;;;19.45;77.15;101689.44;5029466;28;1214;-84
2023/07/06 10:21:21;;;;;;;;;;;;;;;19.56;75.60;101683.06;5018527;28;1875;-85
2023/07/06 10:23:49;;;;;;;;;;;;;;;19.63;74.87;101684.88;5027476;28;1476;-84
2023/07/06 10:26:26;;;;;;;;;;;;;;;19.73;73.90;101678.66;5019625;28;1259;-84
2023/07/06 10:28:56;;;;;;;;;;;;;;;19.78;73.94;101682.41;5036860;28;1267;-85
2023/07/06 10:31:25;;;;;;;;;;;;;;;19.88;71.64;101687.53;5032279;28;1168;-84
2023/07/06 10:33:54;;;;;;;;;;;;;;;19.96;71.58;101687.53;5030276;28;1277;-86
2023/07/06 10:36:21;;;;;;;;;;;;;;;20.14;73.38;101684.72;5025497;28;1324;-84
2023/07/06 10:38:48;;;;;;;;;;;;;;;20.25;71.85;101689.63;5019704;28;1368;-85
2023/07/06 10:41:21;;;;;;;;;;;;;;;20.23;71.65;101688.13;5020708;28;1969;-85
2023/07/06 10:43:48;;;;;;;;;;;;;;;20.22;72.99;101691.78;5030031;28;1547;-84
2023/07/06 10:46:31;;;;;;;;;;;;;;;20.25;71.11;101688.81;5019780;28;1218;-84
2023/07/06 10:48:57;;;;;;;;;;;;;;;20.38;71.44;101694.38;5019510;28;959;-85
2023/07/06 10:51:23;;;;;;;;;;;;;;;20.49;71.76;101696.69;5025109;28;1599;-85
2023/07/06 10:54:02;;;;;;;;;;;;;;;20.50;70.43;101693.06;5029733;28;1376;-85
2023/07/06 10:56:30;;;;;;;;;;;;;;;20.50;69.98;101698.31;5024277;28;1307;-85
2023/07/06 10:58:59;;;;;;;;;;;;;;;20.41;67.77;101700.16;5021349;28;1259;-85
2023/07/06 11:01:29;;;;;;;;;;;;;;;20.34;70.02;101698.34;5024148;28;1894;-84
2023/07/06 11:03:54;;;;;;;;;;;;;;;20.36;70.16;101697.19;5025114;28;1356;-85
2023/07/06 11:06:44;;;;;;;;;;;;;;;20.44;70.60;101698.97;5025049;28;1631;-85
2023/07/06 11:09:09;;;;;;;;;;;;;;;20.58;68.78;101703.56;5011640;28;1286;-85
2023/07/06 11:11:36;;;;;;;;;;;;;;;20.63;69.27;101706.50;5026454;28;1497;-84
2023/07/06 11:14:20;;;;;;;;;;;;;;;20.61;67.66;101705.88;5022830;28;1392;-84
2023/07/06 11:16:55;;;;;;;;;;;;;;;20.67;69.00;101699.09;5034771;28;1463;-85
2023/07/06 11:19:24;;;;;;;;;;;;;;;20.71;67.45;101699.59;5026421;28;1197;-85
2023/07/06 11:21:51;;;;;;;;;;;;;;;20.79;67.52;101707.47;5015961;28;1898;-85
2023/07/06 11:24:21;;;;;;;;;;;;;;;20.93;65.24;101704.09;5025036;28;1405;-85
2023/07/06 11:26:49;;;;;;;;;;;;;;;21.09;65.28;101704.03;5018001;28;1188;-85
2023/07/06 11:29:16;;;;;;;;;;;;;;;21.26;65.07;101704.75;5024091;28;1336;-84
2023/07/06 11:31:47;;;;;;;;;;;;;;;21.27;65.40;101711.66;5037846;28;1334;-84
2023/07/06 11:34:35;;;;;;;;;;;;;;;21.38;65.81;101707.84;5018685;28;1459;-84
2023/07/06 11:37:03;;;;;;;;;;;;;;;21.56;65.66;101700.47;5016686;28;1367;-85
2023/07/06 11:39:34;;;;;;;;;;;;;;;21.59;65.06;101705.41;5018193;28;1580;-84
2023/07/06 11:42:01;;;;;;;;;;;;;;;21.57;64.69;101717.97;5020010;28;1894;-84
2023/07/06 11:44:31;;;;;;;;;;;;;;;21.45;62.68;101714.09;5018846;28;1413;-85
2023/07/06 11:47:18;;;;;;;;;;;;;;;21.48;64.52;101713.72;5016610;28;1538;-84
2023/07/06 11:49:48;;;;;;;;;;;;;;;21.67;63.95;101715.91;5023333;28;1491;-85
2023/07/06 11:52:15;;;;;;;;;;;;;;;21.83;63.44;101717.59;5021220;28;1253;-85
2023/07/06 11:57:29;;;;;;;;;;;;;;;21.95;62.33;101713.53;5017211;28;1275;-85
2023/07/06 12:00:14;;;;;;;;;;;;;;;21.89;61.62;101721.34;5020604;28;1284;-85
2023/07/06 12:02:40;;;;;;;;;;;;;;;21.87;59.64;101721.53;5026622;28;1890;-85
2023/07/06 12:05:26;;;;;;;;;;;;;;;21.69;60.81;101726.31;5023388;28;1436;-85
2023/07/06 12:07:56;;;;;;;;;;;;;;;21.55;60.54;101730.50;5014064;28;1657;-85
2023/07/06 12:10:22;;;;;;;;;;;;;;;21.33;60.21;101728.66;5014958;28;1359;-85
2023/07/06 12:12:47;;;;;;;;;;;;;;;21.21;60.26;101723.75;5021348;28;1316;-85
2023/07/06 12:15:12;;;;;;;;;;;;;;;21.14;60.06;101722.78;5012516;28;1149;-85
2023/07/06 12:17:37;;;;;;;;;;;;;;;21.21;59.98;101718.47;5013686;28;1572;-85
2023/07/06 12:20:08;;;;;;;;;;;;;;;21.44;60.14;101720.34;5014517;28;1295;-85
2023/07/06 12:22:34;;;;;;;;;;;;;;;21.66;58.58;101724.81;5016313;28;1976;-86
2023/07/06 12:24:59;;;;;;;;;;;;;;;21.76;58.94;101723.78;5021053;28;1025;-85
2023/07/06 12:27:26;;;;;;;;;;;;;;;21.93;59.69;101734.03;5011730;28;1718;-85
2023/07/06 12:30:03;;;;;;;;;;;;;;;21.93;58.02;101730.56;5020790;28;1335;-85
2023/07/06 12:32:29;;;;;;;;;;;;;;;21.70;58.20;101738.50;5023270;28;1332;-86
2023/07/06 12:34:55;;;;;;;;;;;;;;;21.63;57.92;101737.56;5025562;28;1396;-85
2023/07/06 12:37:22;;;;;;;;;;;;;;;21.60;57.89;101738.72;5021473;28;1370;-85
2023/07/06 12:39:48;;;;;;;;;;;;;;;21.56;57.49;101742.69;5016213;28;1337;-85
2023/07/06 12:42:16;;;;;;;;;;;;;;;21.59;57.19;101742.38;5015666;28;1945;-85
2023/07/06 12:44:43;;;;;;;;;;;;;;;21.44;57.63;101744.91;5018948;28;1214;-86
2023/07/06 12:47:20;;;;;;;;;;;;;;;21.37;58.00;101737.88;5013119;28;1397;-85
2023/07/06 12:49:46;;;;;;;;;;;;;;;21.32;57.60;101734.94;5019376;28;1254;-85
2023/07/06 12:52:12;;;;;;;;;;;;;;;21.34;56.78;101727.69;5024813;28;1023;-85
2023/07/06 12:54:46;;;;;;;;;;;;;;;21.40;55.96;101727.81;5018282;28;1207;-85
2023/07/06 12:57:22;;;;;;;;;;;;;;;21.55;56.45;101741.06;5015558;28;1268;-85
2023/07/06 12:59:49;;;;;;;;;;;;;;;21.67;56.00;101737.00;5024314;28;1249;-85
2023/07/06 13:02:16;;;;;;;;;;;;;;;21.80;55.17;101730.34;5016051;28;1903;-85
2023/07/06 13:04:47;;;;;;;;;;;;;;;21.97;55.37;101731.88;5022810;28;1759;-86